sensor_id;sensor_type;location;lat;lon;timestamp;P1;durP1;ratioP1;P2;durP2;ratioP2
8596;SDS011;4336;49.310;8.646;2024-03-02T00:01:35;27.80;;;23.07;;
8596;SDS011;4336;49.310;8.646;2024-03-02T00:04:02;32.70;;;25.23;;
8596;SDS011;4336;49.310;8.646;2024-03-02T00:06:28;29.03;;;23.80;;
8596;SDS011;4336;49.310;8.646;2024-03-02T00:08:56;29.67;;;25.30;;
8596;SDS011;4336;49.310;8.646;2024-03-02T00:11:23;30.30;;;24.17;;
8596;SDS011;4336;49.310;8.646;2024-03-02T00:13:51;29.47;;;25.67;;
8596;SDS011;4336;49.310;8.646;2024-03-02T00:16:18;27.63;;;24.63;;
8596;SDS011;4336;49.310;8.646;2024-03-02T00:18:45;26.90;;;23.63;;
8596;SDS011;4336;49.310;8.646;2024-03-02T00:21:11;26.40;;;23.60;;
8596;SDS011;4336;49.310;8.646;2024-03-02T00:23:39;26.87;;;23.03;;
8596;SDS011;4336;49.310;8.646;2024-03-02T00:26:06;29.97;;;23.40;;
8596;SDS011;4336;49.310;8.646;2024-03-02T00:28:34;29.97;;;23.60;;
8596;SDS011;4336;49.310;8.646;2024-03-02T00:31:04;31.33;;;24.60;;
8596;SDS011;4336;49.310;8.646;2024-03-02T00:33:34;26.13;;;23.13;;
8596;SDS011;4336;49.310;8.646;2024-03-02T00:36:01;25.47;;;22.67;;
8596;SDS011;4336;49.310;8.646;2024-03-02T00:38:28;30.63;;;24.83;;
8596;SDS011;4336;49.310;8.646;2024-03-02T00:40:54;30.07;;;23.50;;
8596;SDS011;4336;49.310;8.646;2024-03-02T00:45:51;26.23;;;23.43;;
8596;SDS011;4336;49.310;8.646;2024-03-02T00:48:17;28.73;;;24.63;;
8596;SDS011;4336;49.310;8.646;2024-03-02T00:50:43;27.90;;;22.93;;
8596;SDS011;4336;49.310;8.646;2024-03-02T00:53:09;27.43;;;23.37;;
8596;SDS011;4336;49.310;8.646;2024-03-02T00:55:36;28.67;;;25.50;;
8596;SDS011;4336;49.310;8.646;2024-03-02T00:58:03;34.07;;;26.10;;
8596;SDS011;4336;49.310;8.646;2024-03-02T01:00:29;28.03;;;23.27;;
8596;SDS011;4336;49.310;8.646;2024-03-02T01:02:55;27.73;;;24.00;;
8596;SDS011;4336;49.310;8.646;2024-03-02T01:05:21;28.50;;;25.20;;
8596;SDS011;4336;49.310;8.646;2024-03-02T01:07:48;31.50;;;26.70;;
8596;SDS011;4336;49.310;8.646;2024-03-02T01:10:14;28.57;;;25.53;;
8596;SDS011;4336;49.310;8.646;2024-03-02T01:12:40;28.10;;;23.90;;
8596;SDS011;4336;49.310;8.646;2024-03-02T01:15:07;31.30;;;25.93;;
8596;SDS011;4336;49.310;8.646;2024-03-02T01:17:33;29.63;;;25.47;;
8596;SDS011;4336;49.310;8.646;2024-03-02T01:19:59;29.17;;;24.83;;
8596;SDS011;4336;49.310;8.646;2024-03-02T01:22:25;33.63;;;25.87;;
8596;SDS011;4336;49.310;8.646;2024-03-02T01:24:51;30.50;;;24.47;;
8596;SDS011;4336;49.310;8.646;2024-03-02T01:27:17;30.83;;;24.77;;
8596;SDS011;4336;49.310;8.646;2024-03-02T01:29:44;29.63;;;24.73;;
8596;SDS011;4336;49.310;8.646;2024-03-02T01:32:10;28.80;;;23.93;;
8596;SDS011;4336;49.310;8.646;2024-03-02T01:34:36;30.97;;;24.33;;
8596;SDS011;4336;49.310;8.646;2024-03-02T01:37:02;28.50;;;25.13;;
8596;SDS011;4336;49.310;8.646;2024-03-02T01:39:29;27.57;;;23.33;;
8596;SDS011;4336;49.310;8.646;2024-03-02T01:41:55;28.80;;;25.17;;
8596;SDS011;4336;49.310;8.646;2024-03-02T01:44:21;33.23;;;26.93;;
8596;SDS011;4336;49.310;8.646;2024-03-02T01:46:47;36.47;;;25.20;;
8596;SDS011;4336;49.310;8.646;2024-03-02T01:49:13;28.90;;;25.17;;
8596;SDS011;4336;49.310;8.646;2024-03-02T01:51:39;29.80;;;24.43;;
8596;SDS011;4336;49.310;8.646;2024-03-02T01:54:05;34.03;;;24.60;;
8596;SDS011;4336;49.310;8.646;2024-03-02T01:56:34;27.77;;;23.43;;
8596;SDS011;4336;49.310;8.646;2024-03-02T01:59:00;30.40;;;25.67;;
8596;SDS011;4336;49.310;8.646;2024-03-02T02:01:26;26.53;;;23.63;;
8596;SDS011;4336;49.310;8.646;2024-03-02T02:03:52;29.47;;;23.33;;
8596;SDS011;4336;49.310;8.646;2024-03-02T02:06:18;27.53;;;21.23;;
8596;SDS011;4336;49.310;8.646;2024-03-02T02:08:44;24.70;;;22.03;;
8596;SDS011;4336;49.310;8.646;2024-03-02T02:11:14;28.30;;;23.80;;
8596;SDS011;4336;49.310;8.646;2024-03-02T02:13:40;28.63;;;23.87;;
8596;SDS011;4336;49.310;8.646;2024-03-02T02:16:07;24.20;;;21.03;;
8596;SDS011;4336;49.310;8.646;2024-03-02T02:18:33;23.70;;;20.77;;
8596;SDS011;4336;49.310;8.646;2024-03-02T02:21:00;26.33;;;22.17;;
8596;SDS011;4336;49.310;8.646;2024-03-02T02:23:26;26.33;;;21.50;;
8596;SDS011;4336;49.310;8.646;2024-03-02T02:25:52;25.67;;;22.77;;
8596;SDS011;4336;49.310;8.646;2024-03-02T02:28:18;25.43;;;22.67;;
8596;SDS011;4336;49.310;8.646;2024-03-02T02:30:44;25.23;;;22.63;;
8596;SDS011;4336;49.310;8.646;2024-03-02T02:33:10;25.97;;;22.77;;
8596;SDS011;4336;49.310;8.646;2024-03-02T02:35:37;26.33;;;22.83;;
8596;SDS011;4336;49.310;8.646;2024-03-02T02:38:03;30.77;;;24.60;;
8596;SDS011;4336;49.310;8.646;2024-03-02T02:40:29;27.77;;;22.13;;
8596;SDS011;4336;49.310;8.646;2024-03-02T02:42:56;24.20;;;21.50;;
8596;SDS011;4336;49.310;8.646;2024-03-02T02:45:22;24.97;;;22.27;;
8596;SDS011;4336;49.310;8.646;2024-03-02T02:47:48;28.67;;;22.53;;
8596;SDS011;4336;49.310;8.646;2024-03-02T02:50:15;25.03;;;22.10;;
8596;SDS011;4336;49.310;8.646;2024-03-02T02:52:41;25.07;;;22.47;;
8596;SDS011;4336;49.310;8.646;2024-03-02T02:55:08;31.50;;;22.17;;
8596;SDS011;4336;49.310;8.646;2024-03-02T02:57:35;28.87;;;25.90;;
8596;SDS011;4336;49.310;8.646;2024-03-02T03:00:07;26.27;;;22.47;;
8596;SDS011;4336;49.310;8.646;2024-03-02T03:02:35;27.80;;;22.73;;
8596;SDS011;4336;49.310;8.646;2024-03-02T03:05:02;28.97;;;22.87;;
8596;SDS011;4336;49.310;8.646;2024-03-02T03:07:28;28.33;;;23.27;;
8596;SDS011;4336;49.310;8.646;2024-03-02T03:09:54;27.63;;;23.70;;
8596;SDS011;4336;49.310;8.646;2024-03-02T03:12:20;27.50;;;24.40;;
8596;SDS011;4336;49.310;8.646;2024-03-02T03:14:46;28.57;;;24.83;;
8596;SDS011;4336;49.310;8.646;2024-03-02T03:17:12;29.60;;;25.13;;
8596;SDS011;4336;49.310;8.646;2024-03-02T03:19:38;28.40;;;23.97;;
8596;SDS011;4336;49.310;8.646;2024-03-02T03:22:04;27.93;;;24.93;;
8596;SDS011;4336;49.310;8.646;2024-03-02T03:24:31;27.27;;;24.23;;
8596;SDS011;4336;49.310;8.646;2024-03-02T03:26:58;27.40;;;24.30;;
8596;SDS011;4336;49.310;8.646;2024-03-02T03:29:24;27.97;;;24.97;;
8596;SDS011;4336;49.310;8.646;2024-03-02T03:31:50;27.37;;;24.37;;
8596;SDS011;4336;49.310;8.646;2024-03-02T03:34:16;27.23;;;24.33;;
8596;SDS011;4336;49.310;8.646;2024-03-02T03:36:42;31.43;;;28.20;;
8596;SDS011;4336;49.310;8.646;2024-03-02T03:39:08;26.77;;;23.23;;
8596;SDS011;4336;49.310;8.646;2024-03-02T03:41:34;30.60;;;24.90;;
8596;SDS011;4336;49.310;8.646;2024-03-02T03:44:01;26.90;;;23.67;;
8596;SDS011;4336;49.310;8.646;2024-03-02T03:46:27;27.60;;;24.37;;
8596;SDS011;4336;49.310;8.646;2024-03-02T03:48:53;28.30;;;25.30;;
8596;SDS011;4336;49.310;8.646;2024-03-02T03:51:21;28.60;;;25.17;;
8596;SDS011;4336;49.310;8.646;2024-03-02T03:53:49;32.27;;;24.10;;
8596;SDS011;4336;49.310;8.646;2024-03-02T03:56:15;31.67;;;27.83;;
8596;SDS011;4336;49.310;8.646;2024-03-02T03:58:42;31.00;;;24.67;;
8596;SDS011;4336;49.310;8.646;2024-03-02T04:01:08;31.47;;;26.70;;
8596;SDS011;4336;49.310;8.646;2024-03-02T04:03:34;30.73;;;27.53;;
8596;SDS011;4336;49.310;8.646;2024-03-02T04:06:00;27.93;;;24.43;;
8596;SDS011;4336;49.310;8.646;2024-03-02T04:08:26;30.60;;;24.50;;
8596;SDS011;4336;49.310;8.646;2024-03-02T04:10:52;27.50;;;24.60;;
8596;SDS011;4336;49.310;8.646;2024-03-02T04:13:19;35.50;;;32.00;;
8596;SDS011;4336;49.310;8.646;2024-03-02T04:15:45;26.97;;;23.00;;
8596;SDS011;4336;49.310;8.646;2024-03-02T04:18:11;27.50;;;24.03;;
8596;SDS011;4336;49.310;8.646;2024-03-02T04:20:37;27.00;;;23.37;;
8596;SDS011;4336;49.310;8.646;2024-03-02T04:23:03;28.10;;;21.93;;
8596;SDS011;4336;49.310;8.646;2024-03-02T04:25:29;28.13;;;23.00;;
8596;SDS011;4336;49.310;8.646;2024-03-02T04:27:55;27.20;;;24.30;;
8596;SDS011;4336;49.310;8.646;2024-03-02T04:30:21;25.20;;;21.63;;
8596;SDS011;4336;49.310;8.646;2024-03-02T04:32:47;25.43;;;22.67;;
8596;SDS011;4336;49.310;8.646;2024-03-02T04:35:14;25.27;;;22.60;;
8596;SDS011;4336;49.310;8.646;2024-03-02T04:37:40;27.50;;;24.07;;
8596;SDS011;4336;49.310;8.646;2024-03-02T04:40:06;26.63;;;23.83;;
8596;SDS011;4336;49.310;8.646;2024-03-02T04:42:36;25.90;;;23.23;;
8596;SDS011;4336;49.310;8.646;2024-03-02T04:45:02;27.80;;;22.97;;
8596;SDS011;4336;49.310;8.646;2024-03-02T04:47:28;26.90;;;23.57;;
8596;SDS011;4336;49.310;8.646;2024-03-02T04:49:55;24.67;;;22.07;;
8596;SDS011;4336;49.310;8.646;2024-03-02T04:52:21;25.10;;;22.40;;
8596;SDS011;4336;49.310;8.646;2024-03-02T04:54:47;24.80;;;22.20;;
8596;SDS011;4336;49.310;8.646;2024-03-02T04:57:33;24.90;;;22.40;;
8596;SDS011;4336;49.310;8.646;2024-03-02T05:00:00;24.33;;;21.80;;
8596;SDS011;4336;49.310;8.646;2024-03-02T05:02:26;25.97;;;23.37;;
8596;SDS011;4336;49.310;8.646;2024-03-02T05:04:52;24.40;;;21.80;;
8596;SDS011;4336;49.310;8.646;2024-03-02T05:07:18;25.37;;;22.67;;
8596;SDS011;4336;49.310;8.646;2024-03-02T05:09:44;28.07;;;21.00;;
8596;SDS011;4336;49.310;8.646;2024-03-02T05:12:10;24.70;;;22.13;;
8596;SDS011;4336;49.310;8.646;2024-03-02T05:14:36;26.00;;;21.60;;
8596;SDS011;4336;49.310;8.646;2024-03-02T05:17:03;23.50;;;20.97;;
8596;SDS011;4336;49.310;8.646;2024-03-02T05:19:30;29.97;;;22.27;;
8596;SDS011;4336;49.310;8.646;2024-03-02T05:21:56;27.30;;;23.23;;
8596;SDS011;4336;49.310;8.646;2024-03-02T05:24:22;26.23;;;23.20;;
8596;SDS011;4336;49.310;8.646;2024-03-02T05:26:48;26.50;;;23.43;;
8596;SDS011;4336;49.310;8.646;2024-03-02T05:29:14;27.43;;;23.33;;
8596;SDS011;4336;49.310;8.646;2024-03-02T05:31:40;26.07;;;23.23;;
8596;SDS011;4336;49.310;8.646;2024-03-02T05:34:06;25.80;;;23.03;;
8596;SDS011;4336;49.310;8.646;2024-03-02T05:36:32;27.83;;;22.33;;
8596;SDS011;4336;49.310;8.646;2024-03-02T05:38:58;27.07;;;24.13;;
8596;SDS011;4336;49.310;8.646;2024-03-02T05:41:25;29.80;;;24.53;;
8596;SDS011;4336;49.310;8.646;2024-03-02T05:43:51;27.73;;;23.27;;
8596;SDS011;4336;49.310;8.646;2024-03-02T05:46:17;26.47;;;23.63;;
8596;SDS011;4336;49.310;8.646;2024-03-02T05:48:43;29.27;;;22.97;;
8596;SDS011;4336;49.310;8.646;2024-03-02T05:51:09;25.60;;;22.83;;
8596;SDS011;4336;49.310;8.646;2024-03-02T05:53:35;22.87;;;20.47;;
8596;SDS011;4336;49.310;8.646;2024-03-02T05:56:03;26.53;;;23.70;;
8596;SDS011;4336;49.310;8.646;2024-03-02T05:58:29;26.07;;;22.50;;
8596;SDS011;4336;49.310;8.646;2024-03-02T06:01:14;25.07;;;22.40;;
8596;SDS011;4336;49.310;8.646;2024-03-02T06:03:40;24.80;;;22.13;;
8596;SDS011;4336;49.310;8.646;2024-03-02T06:06:06;25.20;;;22.43;;
8596;SDS011;4336;49.310;8.646;2024-03-02T06:08:32;25.30;;;21.90;;
8596;SDS011;4336;49.310;8.646;2024-03-02T06:10:59;27.03;;;22.00;;
8596;SDS011;4336;49.310;8.646;2024-03-02T06:13:25;27.70;;;24.57;;
8596;SDS011;4336;49.310;8.646;2024-03-02T06:15:51;26.67;;;23.80;;
8596;SDS011;4336;49.310;8.646;2024-03-02T06:18:18;28.20;;;24.53;;
8596;SDS011;4336;49.310;8.646;2024-03-02T06:20:44;26.13;;;23.07;;
8596;SDS011;4336;49.310;8.646;2024-03-02T06:23:10;26.90;;;24.00;;
8596;SDS011;4336;49.310;8.646;2024-03-02T06:25:36;29.47;;;26.30;;
8596;SDS011;4336;49.310;8.646;2024-03-02T06:28:02;30.13;;;22.93;;
8596;SDS011;4336;49.310;8.646;2024-03-02T06:30:29;28.50;;;24.57;;
8596;SDS011;4336;49.310;8.646;2024-03-02T06:32:55;29.23;;;25.77;;
8596;SDS011;4336;49.310;8.646;2024-03-02T06:35:21;29.13;;;23.93;;
8596;SDS011;4336;49.310;8.646;2024-03-02T06:37:47;30.40;;;26.47;;
8596;SDS011;4336;49.310;8.646;2024-03-02T06:40:13;29.67;;;26.30;;
8596;SDS011;4336;49.310;8.646;2024-03-02T06:42:40;28.60;;;25.50;;
8596;SDS011;4336;49.310;8.646;2024-03-02T06:45:06;25.63;;;22.93;;
8596;SDS011;4336;49.310;8.646;2024-03-02T06:47:32;27.73;;;24.83;;
8596;SDS011;4336;49.310;8.646;2024-03-02T06:49:58;26.50;;;23.53;;
8596;SDS011;4336;49.310;8.646;2024-03-02T06:52:24;28.03;;;24.67;;
8596;SDS011;4336;49.310;8.646;2024-03-02T06:54:50;24.40;;;21.20;;
8596;SDS011;4336;49.310;8.646;2024-03-02T06:57:16;25.43;;;22.57;;
8596;SDS011;4336;49.310;8.646;2024-03-02T06:59:44;25.03;;;22.03;;
8596;SDS011;4336;49.310;8.646;2024-03-02T07:02:10;27.73;;;24.80;;
8596;SDS011;4336;49.310;8.646;2024-03-02T07:04:37;25.23;;;22.27;;
8596;SDS011;4336;49.310;8.646;2024-03-02T07:07:03;25.93;;;23.13;;
8596;SDS011;4336;49.310;8.646;2024-03-02T07:09:29;23.80;;;21.30;;
8596;SDS011;4336;49.310;8.646;2024-03-02T07:11:55;29.60;;;26.50;;
8596;SDS011;4336;49.310;8.646;2024-03-02T07:14:22;24.40;;;21.80;;
8596;SDS011;4336;49.310;8.646;2024-03-02T07:17:08;26.33;;;23.50;;
8596;SDS011;4336;49.310;8.646;2024-03-02T07:19:35;26.20;;;23.17;;
8596;SDS011;4336;49.310;8.646;2024-03-02T07:22:01;25.87;;;22.30;;
8596;SDS011;4336;49.310;8.646;2024-03-02T07:24:27;25.07;;;22.30;;
8596;SDS011;4336;49.310;8.646;2024-03-02T07:26:53;25.53;;;22.83;;
8596;SDS011;4336;49.310;8.646;2024-03-02T07:29:20;24.30;;;21.70;;
8596;SDS011;4336;49.310;8.646;2024-03-02T07:31:46;28.00;;;25.10;;
8596;SDS011;4336;49.310;8.646;2024-03-02T07:34:12;24.17;;;21.57;;
8596;SDS011;4336;49.310;8.646;2024-03-02T07:36:38;26.53;;;23.50;;
8596;SDS011;4336;49.310;8.646;2024-03-02T07:39:04;24.40;;;21.40;;
8596;SDS011;4336;49.310;8.646;2024-03-02T07:41:30;29.10;;;26.20;;
8596;SDS011;4336;49.310;8.646;2024-03-02T07:43:56;22.43;;;20.03;;
8596;SDS011;4336;49.310;8.646;2024-03-02T07:46:22;23.33;;;20.63;;
8596;SDS011;4336;49.310;8.646;2024-03-02T07:48:49;23.70;;;21.20;;
8596;SDS011;4336;49.310;8.646;2024-03-02T07:51:17;23.00;;;20.00;;
8596;SDS011;4336;49.310;8.646;2024-03-02T07:53:43;22.20;;;19.80;;
8596;SDS011;4336;49.310;8.646;2024-03-02T07:56:09;24.97;;;22.53;;
8596;SDS011;4336;49.310;8.646;2024-03-02T07:58:35;21.90;;;19.77;;
8596;SDS011;4336;49.310;8.646;2024-03-02T08:01:02;21.77;;;19.57;;
8596;SDS011;4336;49.310;8.646;2024-03-02T08:03:28;21.63;;;18.20;;
8596;SDS011;4336;49.310;8.646;2024-03-02T08:05:54;20.77;;;18.67;;
8596;SDS011;4336;49.310;8.646;2024-03-02T08:08:20;19.77;;;17.87;;
8596;SDS011;4336;49.310;8.646;2024-03-02T08:10:46;20.87;;;18.83;;
8596;SDS011;4336;49.310;8.646;2024-03-02T08:13:14;20.53;;;18.40;;
8596;SDS011;4336;49.310;8.646;2024-03-02T08:15:40;19.50;;;17.40;;
8596;SDS011;4336;49.310;8.646;2024-03-02T08:18:06;18.33;;;16.50;;
8596;SDS011;4336;49.310;8.646;2024-03-02T08:20:32;19.00;;;17.10;;
8596;SDS011;4336;49.310;8.646;2024-03-02T08:22:58;17.60;;;15.90;;
8596;SDS011;4336;49.310;8.646;2024-03-02T08:25:24;19.30;;;17.40;;
8596;SDS011;4336;49.310;8.646;2024-03-02T08:27:51;21.93;;;19.80;;
8596;SDS011;4336;49.310;8.646;2024-03-02T08:30:17;18.37;;;16.57;;
8596;SDS011;4336;49.310;8.646;2024-03-02T08:32:43;17.77;;;16.17;;
8596;SDS011;4336;49.310;8.646;2024-03-02T08:35:10;25.03;;;22.47;;
8596;SDS011;4336;49.310;8.646;2024-03-02T08:37:37;20.20;;;18.37;;
8596;SDS011;4336;49.310;8.646;2024-03-02T08:40:05;18.40;;;16.50;;
8596;SDS011;4336;49.310;8.646;2024-03-02T08:42:32;16.53;;;14.90;;
8596;SDS011;4336;49.310;8.646;2024-03-02T08:44:58;19.47;;;17.37;;
8596;SDS011;4336;49.310;8.646;2024-03-02T08:47:26;18.03;;;16.27;;
8596;SDS011;4336;49.310;8.646;2024-03-02T08:49:52;19.93;;;18.13;;
8596;SDS011;4336;49.310;8.646;2024-03-02T08:52:18;17.27;;;15.67;;
8596;SDS011;4336;49.310;8.646;2024-03-02T08:54:44;17.07;;;15.47;;
8596;SDS011;4336;49.310;8.646;2024-03-02T08:57:09;17.53;;;15.90;;
8596;SDS011;4336;49.310;8.646;2024-03-02T08:59:35;15.67;;;14.27;;
8596;SDS011;4336;49.310;8.646;2024-03-02T09:02:01;15.40;;;14.00;;
8596;SDS011;4336;49.310;8.646;2024-03-02T09:04:27;15.03;;;13.67;;
8596;SDS011;4336;49.310;8.646;2024-03-02T09:06:53;15.80;;;14.20;;
8596;SDS011;4336;49.310;8.646;2024-03-02T09:09:19;15.27;;;13.83;;
8596;SDS011;4336;49.310;8.646;2024-03-02T09:11:48;30.70;;;28.37;;
8596;SDS011;4336;49.310;8.646;2024-03-02T09:14:13;14.73;;;13.43;;
8596;SDS011;4336;49.310;8.646;2024-03-02T09:16:40;18.37;;;16.77;;
8596;SDS011;4336;49.310;8.646;2024-03-02T09:19:05;15.20;;;13.80;;
8596;SDS011;4336;49.310;8.646;2024-03-02T09:21:31;14.67;;;13.13;;
8596;SDS011;4336;49.310;8.646;2024-03-02T09:23:57;15.93;;;14.20;;
8596;SDS011;4336;49.310;8.646;2024-03-02T09:26:23;18.53;;;16.87;;
8596;SDS011;4336;49.310;8.646;2024-03-02T09:28:50;23.10;;;18.73;;
8596;SDS011;4336;49.310;8.646;2024-03-02T09:31:16;48.27;;;44.60;;
8596;SDS011;4336;49.310;8.646;2024-03-02T09:33:41;16.00;;;14.40;;
8596;SDS011;4336;49.310;8.646;2024-03-02T09:36:20;18.23;;;16.47;;
8596;SDS011;4336;49.310;8.646;2024-03-02T09:38:46;17.07;;;15.47;;
8596;SDS011;4336;49.310;8.646;2024-03-02T09:41:13;27.57;;;25.37;;
8596;SDS011;4336;49.310;8.646;2024-03-02T09:43:40;15.63;;;14.13;;
8596;SDS011;4336;49.310;8.646;2024-03-02T09:46:07;25.53;;;23.50;;
8596;SDS011;4336;49.310;8.646;2024-03-02T09:48:34;15.97;;;14.57;;
8596;SDS011;4336;49.310;8.646;2024-03-02T09:51:01;24.03;;;22.17;;
8596;SDS011;4336;49.310;8.646;2024-03-02T09:53:32;18.40;;;16.80;;
8596;SDS011;4336;49.310;8.646;2024-03-02T09:56:01;18.63;;;16.83;;
8596;SDS011;4336;49.310;8.646;2024-03-02T09:58:28;16.97;;;15.47;;
8596;SDS011;4336;49.310;8.646;2024-03-02T10:00:54;15.53;;;14.03;;
8596;SDS011;4336;49.310;8.646;2024-03-02T10:03:20;17.50;;;13.80;;
8596;SDS011;4336;49.310;8.646;2024-03-02T10:05:49;15.57;;;14.07;;
8596;SDS011;4336;49.310;8.646;2024-03-02T10:08:16;14.83;;;13.43;;
8596;SDS011;4336;49.310;8.646;2024-03-02T10:10:43;16.17;;;14.73;;
8596;SDS011;4336;49.310;8.646;2024-03-02T10:13:09;15.77;;;14.43;;
8596;SDS011;4336;49.310;8.646;2024-03-02T10:15:37;15.57;;;14.07;;
8596;SDS011;4336;49.310;8.646;2024-03-02T10:18:03;16.07;;;14.47;;
8596;SDS011;4336;49.310;8.646;2024-03-02T10:20:30;15.90;;;14.40;;
8596;SDS011;4336;49.310;8.646;2024-03-02T10:23:14;15.30;;;13.80;;
8596;SDS011;4336;49.310;8.646;2024-03-02T10:25:41;17.50;;;15.90;;
8596;SDS011;4336;49.310;8.646;2024-03-02T10:28:07;15.67;;;14.03;;
8596;SDS011;4336;49.310;8.646;2024-03-02T10:30:34;15.83;;;14.40;;
8596;SDS011;4336;49.310;8.646;2024-03-02T10:33:00;20.97;;;19.23;;
8596;SDS011;4336;49.310;8.646;2024-03-02T10:35:27;15.13;;;13.70;;
8596;SDS011;4336;49.310;8.646;2024-03-02T10:37:53;15.80;;;14.30;;
8596;SDS011;4336;49.310;8.646;2024-03-02T10:40:22;14.93;;;13.53;;
8596;SDS011;4336;49.310;8.646;2024-03-02T10:42:52;16.60;;;15.10;;
8596;SDS011;4336;49.310;8.646;2024-03-02T10:45:19;14.73;;;13.20;;
8596;SDS011;4336;49.310;8.646;2024-03-02T10:47:47;14.93;;;13.63;;
8596;SDS011;4336;49.310;8.646;2024-03-02T10:50:13;29.93;;;27.47;;
8596;SDS011;4336;49.310;8.646;2024-03-02T10:52:40;14.47;;;13.10;;
8596;SDS011;4336;49.310;8.646;2024-03-02T10:55:06;14.63;;;13.33;;
8596;SDS011;4336;49.310;8.646;2024-03-02T10:57:41;13.53;;;12.33;;
8596;SDS011;4336;49.310;8.646;2024-03-02T11:00:11;14.13;;;12.80;;
8596;SDS011;4336;49.310;8.646;2024-03-02T11:02:54;12.87;;;11.67;;
8596;SDS011;4336;49.310;8.646;2024-03-02T11:05:28;14.10;;;12.60;;
8596;SDS011;4336;49.310;8.646;2024-03-02T11:08:02;13.50;;;12.20;;
8596;SDS011;4336;49.310;8.646;2024-03-02T11:10:31;13.93;;;12.67;;
8596;SDS011;4336;49.310;8.646;2024-03-02T11:13:00;14.37;;;12.97;;
8596;SDS011;4336;49.310;8.646;2024-03-02T11:15:27;13.63;;;11.97;;
8596;SDS011;4336;49.310;8.646;2024-03-02T11:17:54;14.83;;;13.43;;
8596;SDS011;4336;49.310;8.646;2024-03-02T11:20:20;15.77;;;14.47;;
8596;SDS011;4336;49.310;8.646;2024-03-02T11:22:47;13.80;;;12.40;;
8596;SDS011;4336;49.310;8.646;2024-03-02T11:25:23;15.07;;;13.67;;
8596;SDS011;4336;49.310;8.646;2024-03-02T11:32:57;13.03;;;11.93;;
8596;SDS011;4336;49.310;8.646;2024-03-02T11:35:27;12.87;;;11.50;;
8596;SDS011;4336;49.310;8.646;2024-03-02T11:37:54;12.33;;;10.77;;
8596;SDS011;4336;49.310;8.646;2024-03-02T11:40:24;12.50;;;11.40;;
8596;SDS011;4336;49.310;8.646;2024-03-02T11:42:52;12.73;;;11.63;;
8596;SDS011;4336;49.310;8.646;2024-03-02T11:45:25;14.47;;;13.03;;
8596;SDS011;4336;49.310;8.646;2024-03-02T11:47:55;12.70;;;11.60;;
8596;SDS011;4336;49.310;8.646;2024-03-02T11:53:07;13.47;;;12.23;;
8596;SDS011;4336;49.310;8.646;2024-03-02T11:55:34;12.03;;;10.97;;
8596;SDS011;4336;49.310;8.646;2024-03-02T11:58:11;11.67;;;10.60;;
8596;SDS011;4336;49.310;8.646;2024-03-02T12:00:37;12.83;;;11.57;;
8596;SDS011;4336;49.310;8.646;2024-03-02T12:03:07;12.10;;;11.00;;
8596;SDS011;4336;49.310;8.646;2024-03-02T12:05:34;13.23;;;12.13;;
8596;SDS011;4336;49.310;8.646;2024-03-02T12:08:01;15.33;;;14.13;;
8596;SDS011;4336;49.310;8.646;2024-03-02T12:10:27;12.73;;;11.23;;
8596;SDS011;4336;49.310;8.646;2024-03-02T12:13:01;11.90;;;10.90;;
8596;SDS011;4336;49.310;8.646;2024-03-02T12:15:28;11.67;;;10.67;;
8596;SDS011;4336;49.310;8.646;2024-03-02T12:17:55;9.90;;;8.97;;
8596;SDS011;4336;49.310;8.646;2024-03-02T12:20:22;16.40;;;9.70;;
8596;SDS011;4336;49.310;8.646;2024-03-02T12:22:55;9.63;;;8.73;;
8596;SDS011;4336;49.310;8.646;2024-03-02T12:25:23;10.60;;;9.70;;
8596;SDS011;4336;49.310;8.646;2024-03-02T12:27:53;10.57;;;9.67;;
8596;SDS011;4336;49.310;8.646;2024-03-02T12:30:20;9.23;;;8.53;;
8596;SDS011;4336;49.310;8.646;2024-03-02T12:32:46;10.00;;;9.20;;
8596;SDS011;4336;49.310;8.646;2024-03-02T12:35:12;12.10;;;8.90;;
8596;SDS011;4336;49.310;8.646;2024-03-02T12:37:47;10.77;;;9.87;;
8596;SDS011;4336;49.310;8.646;2024-03-02T12:40:14;10.73;;;9.73;;
8596;SDS011;4336;49.310;8.646;2024-03-02T12:42:43;9.73;;;8.87;;
8596;SDS011;4336;49.310;8.646;2024-03-02T12:45:10;10.23;;;9.37;;
8596;SDS011;4336;49.310;8.646;2024-03-02T12:47:36;10.37;;;9.47;;
8596;SDS011;4336;49.310;8.646;2024-03-02T12:50:06;12.43;;;11.33;;
8596;SDS011;4336;49.310;8.646;2024-03-02T12:52:33;10.53;;;9.63;;
8596;SDS011;4336;49.310;8.646;2024-03-02T12:55:02;10.13;;;9.27;;
8596;SDS011;4336;49.310;8.646;2024-03-02T12:57:30;9.90;;;8.87;;
8596;SDS011;4336;49.310;8.646;2024-03-02T13:00:03;8.90;;;8.00;;
8596;SDS011;4336;49.310;8.646;2024-03-02T13:02:39;10.83;;;9.93;;
8596;SDS011;4336;49.310;8.646;2024-03-02T13:05:06;9.80;;;8.90;;
8596;SDS011;4336;49.310;8.646;2024-03-02T13:07:36;10.53;;;9.43;;
8596;SDS011;4336;49.310;8.646;2024-03-02T13:10:03;10.47;;;9.43;;
8596;SDS011;4336;49.310;8.646;2024-03-02T13:12:30;10.17;;;9.20;;
8596;SDS011;4336;49.310;8.646;2024-03-02T13:14:57;10.07;;;9.27;;
8596;SDS011;4336;49.310;8.646;2024-03-02T13:17:24;9.83;;;8.83;;
8596;SDS011;4336;49.310;8.646;2024-03-02T13:19:53;8.77;;;7.97;;
8596;SDS011;4336;49.310;8.646;2024-03-02T13:22:23;10.37;;;9.10;;
8596;SDS011;4336;49.310;8.646;2024-03-02T13:24:50;9.23;;;8.07;;
8596;SDS011;4336;49.310;8.646;2024-03-02T13:27:16;9.30;;;8.47;;
8596;SDS011;4336;49.310;8.646;2024-03-02T13:29:45;7.90;;;7.20;;
8596;SDS011;4336;49.310;8.646;2024-03-02T13:32:14;7.63;;;6.93;;
8596;SDS011;4336;49.310;8.646;2024-03-02T13:34:40;8.00;;;7.40;;
8596;SDS011;4336;49.310;8.646;2024-03-02T13:37:07;8.03;;;7.30;;
8596;SDS011;4336;49.310;8.646;2024-03-02T13:39:33;7.93;;;6.60;;
8596;SDS011;4336;49.310;8.646;2024-03-02T13:42:06;7.50;;;7.00;;
8596;SDS011;4336;49.310;8.646;2024-03-02T13:44:33;9.57;;;8.97;;
8596;SDS011;4336;49.310;8.646;2024-03-02T13:46:59;7.97;;;7.47;;
8596;SDS011;4336;49.310;8.646;2024-03-02T13:49:26;7.87;;;6.20;;
8596;SDS011;4336;49.310;8.646;2024-03-02T13:52:05;7.90;;;7.07;;
8596;SDS011;4336;49.310;8.646;2024-03-02T13:54:44;8.20;;;7.60;;
8596;SDS011;4336;49.310;8.646;2024-03-02T13:57:11;8.17;;;7.47;;
8596;SDS011;4336;49.310;8.646;2024-03-02T13:59:37;8.57;;;7.87;;
8596;SDS011;4336;49.310;8.646;2024-03-02T14:02:04;7.37;;;6.87;;
8596;SDS011;4336;49.310;8.646;2024-03-02T14:04:31;7.20;;;6.60;;
8596;SDS011;4336;49.310;8.646;2024-03-02T14:06:58;7.73;;;7.17;;
8596;SDS011;4336;49.310;8.646;2024-03-02T14:09:24;8.87;;;8.17;;
8596;SDS011;4336;49.310;8.646;2024-03-02T14:11:52;6.60;;;6.10;;
8596;SDS011;4336;49.310;8.646;2024-03-02T14:14:18;6.83;;;6.33;;
8596;SDS011;4336;49.310;8.646;2024-03-02T14:16:44;8.00;;;6.40;;
8596;SDS011;4336;49.310;8.646;2024-03-02T14:19:11;6.33;;;5.83;;
8596;SDS011;4336;49.310;8.646;2024-03-02T14:21:37;8.07;;;7.10;;
8596;SDS011;4336;49.310;8.646;2024-03-02T14:24:04;6.73;;;6.33;;
8596;SDS011;4336;49.310;8.646;2024-03-02T14:26:32;7.17;;;6.60;;
8596;SDS011;4336;49.310;8.646;2024-03-02T14:28:58;7.07;;;6.47;;
8596;SDS011;4336;49.310;8.646;2024-03-02T14:31:27;8.80;;;6.60;;
8596;SDS011;4336;49.310;8.646;2024-03-02T14:33:53;6.80;;;6.20;;
8596;SDS011;4336;49.310;8.646;2024-03-02T14:36:19;7.00;;;6.50;;
8596;SDS011;4336;49.310;8.646;2024-03-02T14:38:46;7.83;;;7.23;;
8596;SDS011;4336;49.310;8.646;2024-03-02T14:41:12;7.23;;;6.63;;
8596;SDS011;4336;49.310;8.646;2024-03-02T14:43:38;7.23;;;6.23;;
8596;SDS011;4336;49.310;8.646;2024-03-02T14:46:05;7.53;;;6.83;;
8596;SDS011;4336;49.310;8.646;2024-03-02T14:48:34;7.03;;;6.53;;
8596;SDS011;4336;49.310;8.646;2024-03-02T14:51:00;6.87;;;6.37;;
8596;SDS011;4336;49.310;8.646;2024-03-02T14:53:27;6.47;;;6.07;;
8596;SDS011;4336;49.310;8.646;2024-03-02T14:55:53;6.57;;;6.10;;
8596;SDS011;4336;49.310;8.646;2024-03-02T14:58:20;6.70;;;6.20;;
8596;SDS011;4336;49.310;8.646;2024-03-02T15:00:46;6.80;;;6.30;;
8596;SDS011;4336;49.310;8.646;2024-03-02T15:03:12;6.53;;;5.93;;